sensor_id;sensor_type;location;lat;lon;timestamp;temperature;humidity
66019;HTU21D;52787;51.084;5.816;2023-12-20T00:01:37;9.54;89.88
66019;HTU21D;52787;51.084;5.816;2023-12-20T00:04:03;9.38;89.20
66019;HTU21D;52787;51.084;5.816;2023-12-20T00:06:30;9.26;87.70
66019;HTU21D;52787;51.084;5.816;2023-12-20T00:08:56;9.29;88.21
66019;HTU21D;52787;51.084;5.816;2023-12-20T00:11:23;9.21;86.83
66019;HTU21D;52787;51.084;5.816;2023-12-20T00:13:49;9.20;87.09
66019;HTU21D;52787;51.084;5.816;2023-12-20T00:16:15;9.14;86.31
66019;HTU21D;52787;51.084;5.816;2023-12-20T00:18:41;9.04;85.43
66019;HTU21D;52787;51.084;5.816;2023-12-20T00:21:07;8.96;84.70
66019;HTU21D;52787;51.084;5.816;2023-12-20T00:23:32;8.89;85.38
66019;HTU21D;52787;51.084;5.816;2023-12-20T00:25:58;8.81;84.93
66019;HTU21D;52787;51.084;5.816;2023-12-20T00:28:24;8.66;85.15
66019;HTU21D;52787;51.084;5.816;2023-12-20T00:30:49;8.62;85.08
66019;HTU21D;52787;51.084;5.816;2023-12-20T00:33:15;8.60;84.68
66019;HTU21D;52787;51.084;5.816;2023-12-20T00:35:41;8.55;85.10
66019;HTU21D;52787;51.084;5.816;2023-12-20T00:38:06;8.50;85.13
66019;HTU21D;52787;51.084;5.816;2023-12-20T00:40:34;8.44;84.68
66019;HTU21D;52787;51.084;5.816;2023-12-20T00:43:00;8.38;84.64
66019;HTU21D;52787;51.084;5.816;2023-12-20T00:45:25;8.38;84.84
66019;HTU21D;52787;51.084;5.816;2023-12-20T00:47:51;8.38;84.90
66019;HTU21D;52787;51.084;5.816;2023-12-20T00:50:17;8.32;84.71
66019;HTU21D;52787;51.084;5.816;2023-12-20T00:52:43;8.28;84.95
66019;HTU21D;52787;51.084;5.816;2023-12-20T00:55:08;8.30;84.98
66019;HTU21D;52787;51.084;5.816;2023-12-20T00:57:34;8.30;84.81
66019;HTU21D;52787;51.084;5.816;2023-12-20T01:00:00;8.29;84.92
66019;HTU21D;52787;51.084;5.816;2023-12-20T01:02:26;8.26;85.16
66019;HTU21D;52787;51.084;5.816;2023-12-20T01:04:52;8.27;85.41
66019;HTU21D;52787;51.084;5.816;2023-12-20T01:07:17;8.28;85.51
66019;HTU21D;52787;51.084;5.816;2023-12-20T01:09:44;8.28;85.58
66019;HTU21D;52787;51.084;5.816;2023-12-20T01:12:09;8.26;85.79
66019;HTU21D;52787;51.084;5.816;2023-12-20T01:14:35;8.22;86.00
66019;HTU21D;52787;51.084;5.816;2023-12-20T01:17:01;8.23;86.22
66019;HTU21D;52787;51.084;5.816;2023-12-20T01:19:27;8.22;86.13
66019;HTU21D;52787;51.084;5.816;2023-12-20T01:21:53;8.18;86.05
66019;HTU21D;52787;51.084;5.816;2023-12-20T01:24:19;8.12;86.14
66019;HTU21D;52787;51.084;5.816;2023-12-20T01:26:45;8.08;86.24
66019;HTU21D;52787;51.084;5.816;2023-12-20T01:29:10;8.08;86.27
66019;HTU21D;52787;51.084;5.816;2023-12-20T01:31:36;8.05;86.39
66019;HTU21D;52787;51.084;5.816;2023-12-20T01:34:02;8.02;86.44
66019;HTU21D;52787;51.084;5.816;2023-12-20T01:36:27;7.99;86.62
66019;HTU21D;52787;51.084;5.816;2023-12-20T01:38:54;7.98;86.68
66019;HTU21D;52787;51.084;5.816;2023-12-20T01:41:20;7.93;86.71
66019;HTU21D;52787;51.084;5.816;2023-12-20T01:43:45;7.90;86.74
66019;HTU21D;52787;51.084;5.816;2023-12-20T01:46:12;7.88;86.78
66019;HTU21D;52787;51.084;5.816;2023-12-20T01:48:38;7.84;86.85
66019;HTU21D;52787;51.084;5.816;2023-12-20T01:51:04;7.83;86.87
66019;HTU21D;52787;51.084;5.816;2023-12-20T01:53:31;7.79;86.96
66019;HTU21D;52787;51.084;5.816;2023-12-20T01:55:58;7.81;86.85
66019;HTU21D;52787;51.084;5.816;2023-12-20T01:58:25;7.73;86.86
66019;HTU21D;52787;51.084;5.816;2023-12-20T02:00:52;7.70;87.05
66019;HTU21D;52787;51.084;5.816;2023-12-20T02:03:18;7.68;86.85
66019;HTU21D;52787;51.084;5.816;2023-12-20T02:05:45;7.64;86.82
66019;HTU21D;52787;51.084;5.816;2023-12-20T02:08:13;7.57;86.96
66019;HTU21D;52787;51.084;5.816;2023-12-20T02:10:39;7.56;87.12
66019;HTU21D;52787;51.084;5.816;2023-12-20T02:13:06;7.53;87.40
66019;HTU21D;52787;51.084;5.816;2023-12-20T02:15:32;7.49;87.33
66019;HTU21D;52787;51.084;5.816;2023-12-20T02:17:58;7.48;87.51
66019;HTU21D;52787;51.084;5.816;2023-12-20T02:20:24;7.49;87.47
66019;HTU21D;52787;51.084;5.816;2023-12-20T02:22:50;7.52;87.53
66019;HTU21D;52787;51.084;5.816;2023-12-20T02:25:15;7.52;87.55
66019;HTU21D;52787;51.084;5.816;2023-12-20T02:27:41;7.55;87.44
66019;HTU21D;52787;51.084;5.816;2023-12-20T02:30:08;7.50;87.31
66019;HTU21D;52787;51.084;5.816;2023-12-20T02:32:35;7.49;87.28
66019;HTU21D;52787;51.084;5.816;2023-12-20T02:35:01;7.43;87.64
66019;HTU21D;52787;51.084;5.816;2023-12-20T02:37:26;7.40;87.73
66019;HTU21D;52787;51.084;5.816;2023-12-20T02:39:52;7.35;87.93
66019;HTU21D;52787;51.084;5.816;2023-12-20T02:42:18;7.39;88.07
66019;HTU21D;52787;51.084;5.816;2023-12-20T02:44:43;7.39;88.27
66019;HTU21D;52787;51.084;5.816;2023-12-20T02:47:09;7.43;88.15
66019;HTU21D;52787;51.084;5.816;2023-12-20T02:49:35;7.41;88.18
66019;HTU21D;52787;51.084;5.816;2023-12-20T02:52:01;7.41;88.24
66019;HTU21D;52787;51.084;5.816;2023-12-20T02:54:26;7.43;88.22
66019;HTU21D;52787;51.084;5.816;2023-12-20T02:56:52;7.45;88.24
66019;HTU21D;52787;51.084;5.816;2023-12-20T02:59:18;7.48;88.05
66019;HTU21D;52787;51.084;5.816;2023-12-20T03:01:45;7.45;87.99
66019;HTU21D;52787;51.084;5.816;2023-12-20T03:04:14;7.38;88.15
66019;HTU21D;52787;51.084;5.816;2023-12-20T03:06:40;7.35;88.08
66019;HTU21D;52787;51.084;5.816;2023-12-20T03:09:05;7.32;88.25
66019;HTU21D;52787;51.084;5.816;2023-12-20T03:11:31;7.27;88.28
66019;HTU21D;52787;51.084;5.816;2023-12-20T03:13:57;7.23;88.37
66019;HTU21D;52787;51.084;5.816;2023-12-20T03:16:23;7.18;88.46
66019;HTU21D;52787;51.084;5.816;2023-12-20T03:18:49;7.16;88.60
66019;HTU21D;52787;51.084;5.816;2023-12-20T03:21:15;7.19;88.70
66019;HTU21D;52787;51.084;5.816;2023-12-20T03:23:41;7.19;88.73
66019;HTU21D;52787;51.084;5.816;2023-12-20T03:26:07;7.19;88.67
66019;HTU21D;52787;51.084;5.816;2023-12-20T03:28:34;7.20;88.54
66019;HTU21D;52787;51.084;5.816;2023-12-20T03:31:00;7.17;88.52
66019;HTU21D;52787;51.084;5.816;2023-12-20T03:33:25;7.18;88.69
66019;HTU21D;52787;51.084;5.816;2023-12-20T03:35:51;7.20;88.82
66019;HTU21D;52787;51.084;5.816;2023-12-20T03:38:17;7.20;88.75
66019;HTU21D;52787;51.084;5.816;2023-12-20T03:40:43;7.19;88.94
66019;HTU21D;52787;51.084;5.816;2023-12-20T03:43:09;7.20;88.88
66019;HTU21D;52787;51.084;5.816;2023-12-20T03:45:34;7.23;88.70
66019;HTU21D;52787;51.084;5.816;2023-12-20T03:48:00;7.26;88.51
66019;HTU21D;52787;51.084;5.816;2023-12-20T03:50:26;7.20;88.44
66019;HTU21D;52787;51.084;5.816;2023-12-20T03:52:52;7.19;88.43
66019;HTU21D;52787;51.084;5.816;2023-12-20T03:55:18;7.15;88.53
66019;HTU21D;52787;51.084;5.816;2023-12-20T03:57:44;7.08;88.28
66019;HTU21D;52787;51.084;5.816;2023-12-20T04:00:10;7.10;88.66
66019;HTU21D;52787;51.084;5.816;2023-12-20T04:02:38;7.04;88.59
66019;HTU21D;52787;51.084;5.816;2023-12-20T04:05:04;7.00;88.79
66019;HTU21D;52787;51.084;5.816;2023-12-20T04:07:30;7.01;88.99
66019;HTU21D;52787;51.084;5.816;2023-12-20T04:09:56;7.03;88.87
66019;HTU21D;52787;51.084;5.816;2023-12-20T04:12:23;7.00;89.02
66019;HTU21D;52787;51.084;5.816;2023-12-20T04:14:49;7.02;89.15
66019;HTU21D;52787;51.084;5.816;2023-12-20T04:17:15;7.04;89.12
66019;HTU21D;52787;51.084;5.816;2023-12-20T04:19:42;7.07;89.15
66019;HTU21D;52787;51.084;5.816;2023-12-20T04:22:08;7.12;89.09
66019;HTU21D;52787;51.084;5.816;2023-12-20T04:24:34;7.10;89.12
66019;HTU21D;52787;51.084;5.816;2023-12-20T04:27:01;7.11;89.00
66019;HTU21D;52787;51.084;5.816;2023-12-20T04:29:27;7.08;89.32
66019;HTU21D;52787;51.084;5.816;2023-12-20T04:31:53;7.05;89.42
66019;HTU21D;52787;51.084;5.816;2023-12-20T04:34:18;7.09;89.79
66019;HTU21D;52787;51.084;5.816;2023-12-20T04:36:45;7.08;89.84
66019;HTU21D;52787;51.084;5.816;2023-12-20T04:39:12;7.07;90.05
66019;HTU21D;52787;51.084;5.816;2023-12-20T04:41:38;7.08;90.12
66019;HTU21D;52787;51.084;5.816;2023-12-20T04:44:05;7.09;90.04
66019;HTU21D;52787;51.084;5.816;2023-12-20T04:46:31;7.11;90.15
66019;HTU21D;52787;51.084;5.816;2023-12-20T04:48:57;7.11;90.05
66019;HTU21D;52787;51.084;5.816;2023-12-20T04:51:23;7.11;90.16
66019;HTU21D;52787;51.084;5.816;2023-12-20T04:53:49;7.12;90.16
66019;HTU21D;52787;51.084;5.816;2023-12-20T04:56:15;7.13;90.20
66019;HTU21D;52787;51.084;5.816;2023-12-20T04:58:42;7.14;90.15
66019;HTU21D;52787;51.084;5.816;2023-12-20T05:01:08;7.18;90.03
66019;HTU21D;52787;51.084;5.816;2023-12-20T05:03:35;7.19;89.99
66019;HTU21D;52787;51.084;5.816;2023-12-20T05:06:01;7.22;90.05
66019;HTU21D;52787;51.084;5.816;2023-12-20T05:08:27;7.19;90.18
66019;HTU21D;52787;51.084;5.816;2023-12-20T05:10:54;7.23;89.85
66019;HTU21D;52787;51.084;5.816;2023-12-20T05:13:21;7.23;89.74
66019;HTU21D;52787;51.084;5.816;2023-12-20T05:15:46;7.22;89.86
66019;HTU21D;52787;51.084;5.816;2023-12-20T05:18:12;7.27;89.76
66019;HTU21D;52787;51.084;5.816;2023-12-20T05:20:39;7.28;89.79
66019;HTU21D;52787;51.084;5.816;2023-12-20T05:23:07;7.31;89.57
66019;HTU21D;52787;51.084;5.816;2023-12-20T05:25:33;7.28;89.45
66019;HTU21D;52787;51.084;5.816;2023-12-20T05:27:59;7.26;89.52
66019;HTU21D;52787;51.084;5.816;2023-12-20T05:30:24;7.24;89.57
66019;HTU21D;52787;51.084;5.816;2023-12-20T05:32:50;7.24;89.67
66019;HTU21D;52787;51.084;5.816;2023-12-20T05:35:16;7.26;89.57
66019;HTU21D;52787;51.084;5.816;2023-12-20T05:37:42;7.24;89.23
66019;HTU21D;52787;51.084;5.816;2023-12-20T05:40:09;7.26;89.25
66019;HTU21D;52787;51.084;5.816;2023-12-20T05:42:36;7.23;89.07
66019;HTU21D;52787;51.084;5.816;2023-12-20T05:45:03;7.20;89.22
66019;HTU21D;52787;51.084;5.816;2023-12-20T05:47:30;7.16;89.25
66019;HTU21D;52787;51.084;5.816;2023-12-20T05:49:56;7.12;89.39
66019;HTU21D;52787;51.084;5.816;2023-12-20T05:52:22;7.12;89.47
66019;HTU21D;52787;51.084;5.816;2023-12-20T05:54:47;7.12;89.64
66019;HTU21D;52787;51.084;5.816;2023-12-20T05:57:13;7.14;89.70
66019;HTU21D;52787;51.084;5.816;2023-12-20T05:59:39;7.15;89.72
66019;HTU21D;52787;51.084;5.816;2023-12-20T06:02:05;7.16;89.59
66019;HTU21D;52787;51.084;5.816;2023-12-20T06:04:31;7.20;89.61
66019;HTU21D;52787;51.084;5.816;2023-12-20T06:06:57;7.24;89.28
66019;HTU21D;52787;51.084;5.816;2023-12-20T06:09:23;7.19;89.44
66019;HTU21D;52787;51.084;5.816;2023-12-20T06:11:49;7.19;89.14
66019;HTU21D;52787;51.084;5.816;2023-12-20T06:14:15;7.22;88.90
66019;HTU21D;52787;51.084;5.816;2023-12-20T06:16:41;7.16;88.91
66019;HTU21D;52787;51.084;5.816;2023-12-20T06:19:07;7.14;88.90
66019;HTU21D;52787;51.084;5.816;2023-12-20T06:21:33;7.14;88.85
66019;HTU21D;52787;51.084;5.816;2023-12-20T06:23:59;7.15;88.53
66019;HTU21D;52787;51.084;5.816;2023-12-20T06:26:25;7.11;88.68
66019;HTU21D;52787;51.084;5.816;2023-12-20T06:28:51;7.07;88.55
66019;HTU21D;52787;51.084;5.816;2023-12-20T06:31:16;7.07;88.57
66019;HTU21D;52787;51.084;5.816;2023-12-20T06:33:43;7.07;88.62
66019;HTU21D;52787;51.084;5.816;2023-12-20T06:36:12;7.03;88.75
66019;HTU21D;52787;51.084;5.816;2023-12-20T06:38:39;7.01;88.80
66019;HTU21D;52787;51.084;5.816;2023-12-20T06:41:05;6.97;88.71
66019;HTU21D;52787;51.084;5.816;2023-12-20T06:43:31;6.96;88.73
66019;HTU21D;52787;51.084;5.816;2023-12-20T06:45:58;6.90;88.90
66019;HTU21D;52787;51.084;5.816;2023-12-20T06:48:24;6.91;88.60
66019;HTU21D;52787;51.084;5.816;2023-12-20T06:50:50;6.91;88.80
66019;HTU21D;52787;51.084;5.816;2023-12-20T06:53:16;6.93;88.83
66019;HTU21D;52787;51.084;5.816;2023-12-20T06:55:42;6.86;88.78
66019;HTU21D;52787;51.084;5.816;2023-12-20T06:58:07;6.91;88.63
66019;HTU21D;52787;51.084;5.816;2023-12-20T07:00:34;6.83;88.88
66019;HTU21D;52787;51.084;5.816;2023-12-20T07:03:00;6.76;89.05
66019;HTU21D;52787;51.084;5.816;2023-12-20T07:05:26;6.81;88.86
66019;HTU21D;52787;51.084;5.816;2023-12-20T07:07:52;6.84;88.84
66019;HTU21D;52787;51.084;5.816;2023-12-20T07:10:17;6.80;88.66
66019;HTU21D;52787;51.084;5.816;2023-12-20T07:12:43;6.76;88.81
66019;HTU21D;52787;51.084;5.816;2023-12-20T07:15:09;6.75;88.89
66019;HTU21D;52787;51.084;5.816;2023-12-20T07:17:36;6.78;88.63
66019;HTU21D;52787;51.084;5.816;2023-12-20T07:20:02;6.76;88.83
66019;HTU21D;52787;51.084;5.816;2023-12-20T07:22:33;6.78;88.67
66019;HTU21D;52787;51.084;5.816;2023-12-20T07:24:59;6.75;88.67
66019;HTU21D;52787;51.084;5.816;2023-12-20T07:27:26;6.75;88.93
66019;HTU21D;52787;51.084;5.816;2023-12-20T07:29:52;6.78;88.90
66019;HTU21D;52787;51.084;5.816;2023-12-20T07:32:18;6.75;88.81
66019;HTU21D;52787;51.084;5.816;2023-12-20T07:34:44;6.75;88.76
66019;HTU21D;52787;51.084;5.816;2023-12-20T07:37:10;6.78;88.60
66019;HTU21D;52787;51.084;5.816;2023-12-20T07:39:40;6.79;88.54
66019;HTU21D;52787;51.084;5.816;2023-12-20T07:42:07;6.79;88.52
66019;HTU21D;52787;51.084;5.816;2023-12-20T07:44:33;6.80;88.35
66019;HTU21D;52787;51.084;5.816;2023-12-20T07:47:01;6.75;88.56
66019;HTU21D;52787;51.084;5.816;2023-12-20T07:49:27;6.75;88.35
66019;HTU21D;52787;51.084;5.816;2023-12-20T07:51:53;6.79;88.38
66019;HTU21D;52787;51.084;5.816;2023-12-20T07:54:19;6.79;88.31
66019;HTU21D;52787;51.084;5.816;2023-12-20T07:56:46;6.79;88.31
66019;HTU21D;52787;51.084;5.816;2023-12-20T07:59:12;6.84;88.08
66019;HTU21D;52787;51.084;5.816;2023-12-20T08:01:38;6.82;88.07
66019;HTU21D;52787;51.084;5.816;2023-12-20T08:04:04;6.84;88.00
66019;HTU21D;52787;51.084;5.816;2023-12-20T08:06:29;6.84;87.96
66019;HTU21D;52787;51.084;5.816;2023-12-20T08:08:55;6.83;88.03
66019;HTU21D;52787;51.084;5.816;2023-12-20T08:11:21;6.88;87.80
66019;HTU21D;52787;51.084;5.816;2023-12-20T08:13:47;6.88;87.77
66019;HTU21D;52787;51.084;5.816;2023-12-20T08:16:12;6.91;87.56
66019;HTU21D;52787;51.084;5.816;2023-12-20T08:18:39;6.91;87.62
66019;HTU21D;52787;51.084;5.816;2023-12-20T08:21:06;6.88;87.69
66019;HTU21D;52787;51.084;5.816;2023-12-20T08:23:35;6.91;87.71
66019;HTU21D;52787;51.084;5.816;2023-12-20T08:26:07;6.94;87.53
66019;HTU21D;52787;51.084;5.816;2023-12-20T08:28:34;6.96;87.69
66019;HTU21D;52787;51.084;5.816;2023-12-20T08:31:00;7.00;87.47
66019;HTU21D;52787;51.084;5.816;2023-12-20T08:33:26;7.08;87.17
66019;HTU21D;52787;51.084;5.816;2023-12-20T08:35:52;7.17;87.00
66019;HTU21D;52787;51.084;5.816;2023-12-20T08:38:18;7.27;86.80
66019;HTU21D;52787;51.084;5.816;2023-12-20T08:40:44;7.28;86.56
66019;HTU21D;52787;51.084;5.816;2023-12-20T08:43:10;7.29;86.29
66019;HTU21D;52787;51.084;5.816;2023-12-20T08:45:36;7.29;86.28
66019;HTU21D;52787;51.084;5.816;2023-12-20T08:48:02;7.31;86.34
66019;HTU21D;52787;51.084;5.816;2023-12-20T08:50:28;7.27;86.35
66019;HTU21D;52787;51.084;5.816;2023-12-20T08:52:54;7.25;86.37
66019;HTU21D;52787;51.084;5.816;2023-12-20T08:55:20;7.25;86.44
66019;HTU21D;52787;51.084;5.816;2023-12-20T08:57:46;7.26;86.21
66019;HTU21D;52787;51.084;5.816;2023-12-20T09:00:12;7.38;86.38
66019;HTU21D;52787;51.084;5.816;2023-12-20T09:02:39;7.44;85.86
66019;HTU21D;52787;51.084;5.816;2023-12-20T09:05:05;7.44;85.77
66019;HTU21D;52787;51.084;5.816;2023-12-20T09:07:31;7.48;85.74
66019;HTU21D;52787;51.084;5.816;2023-12-20T09:09:58;7.57;85.05
66019;HTU21D;52787;51.084;5.816;2023-12-20T09:12:24;7.58;85.05
66019;HTU21D;52787;51.084;5.816;2023-12-20T09:14:51;7.58;85.39
66019;HTU21D;52787;51.084;5.816;2023-12-20T09:17:18;7.59;85.04
66019;HTU21D;52787;51.084;5.816;2023-12-20T09:19:45;7.62;85.06
66019;HTU21D;52787;51.084;5.816;2023-12-20T09:22:11;7.71;84.90
66019;HTU21D;52787;51.084;5.816;2023-12-20T09:24:38;7.81;84.35
66019;HTU21D;52787;51.084;5.816;2023-12-20T09:27:06;7.79;84.27
66019;HTU21D;52787;51.084;5.816;2023-12-20T09:29:33;7.79;84.29
66019;HTU21D;52787;51.084;5.816;2023-12-20T09:31:58;7.82;84.54
66019;HTU21D;52787;51.084;5.816;2023-12-20T09:34:24;7.87;84.42
66019;HTU21D;52787;51.084;5.816;2023-12-20T09:36:51;7.91;83.90
66019;HTU21D;52787;51.084;5.816;2023-12-20T09:39:19;8.05;83.94
66019;HTU21D;52787;51.084;5.816;2023-12-20T09:42:11;8.19;83.32
66019;HTU21D;52787;51.084;5.816;2023-12-20T09:44:36;8.17;82.95
66019;HTU21D;52787;51.084;5.816;2023-12-20T09:47:06;8.19;82.65
66019;HTU21D;52787;51.084;5.816;2023-12-20T09:49:33;8.16;82.91
66019;HTU21D;52787;51.084;5.816;2023-12-20T09:52:00;8.16;83.09
66019;HTU21D;52787;51.084;5.816;2023-12-20T09:54:28;8.16;82.90
66019;HTU21D;52787;51.084;5.816;2023-12-20T09:56:56;8.23;82.81
66019;HTU21D;52787;51.084;5.816;2023-12-20T09:59:21;8.33;82.78
66019;HTU21D;52787;51.084;5.816;2023-12-20T10:01:48;8.35;82.52
66019;HTU21D;52787;51.084;5.816;2023-12-20T10:04:15;8.42;82.25
66019;HTU21D;52787;51.084;5.816;2023-12-20T10:06:43;8.55;81.31
66019;HTU21D;52787;51.084;5.816;2023-12-20T10:09:10;8.63;81.64
66019;HTU21D;52787;51.084;5.816;2023-12-20T10:11:38;8.63;80.68
66019;HTU21D;52787;51.084;5.816;2023-12-20T10:14:05;8.63;80.99
66019;HTU21D;52787;51.084;5.816;2023-12-20T10:16:33;8.66;81.14
66019;HTU21D;52787;51.084;5.816;2023-12-20T10:19:00;8.74;80.62
66019;HTU21D;52787;51.084;5.816;2023-12-20T10:21:29;8.85;80.46
66019;HTU21D;52787;51.084;5.816;2023-12-20T10:23:56;8.92;80.04
66019;HTU21D;52787;51.084;5.816;2023-12-20T10:26:24;8.98;79.40
66019;HTU21D;52787;51.084;5.816;2023-12-20T10:28:54;8.98;79.17
66019;HTU21D;52787;51.084;5.816;2023-12-20T10:31:34;8.94;79.70
66019;HTU21D;52787;51.084;5.816;2023-12-20T10:34:02;8.94;79.70
66019;HTU21D;52787;51.084;5.816;2023-12-20T10:36:30;8.96;79.61
66019;HTU21D;52787;51.084;5.816;2023-12-20T10:38:58;8.93;79.17
66019;HTU21D;52787;51.084;5.816;2023-12-20T10:41:28;8.93;79.58
66019;HTU21D;52787;51.084;5.816;2023-12-20T10:44:03;8.95;79.60
66019;HTU21D;52787;51.084;5.816;2023-12-20T10:46:34;8.98;79.61
66019;HTU21D;52787;51.084;5.816;2023-12-20T10:49:02;9.07;79.10
66019;HTU21D;52787;51.084;5.816;2023-12-20T10:51:31;9.22;78.85
66019;HTU21D;52787;51.084;5.816;2023-12-20T10:53:57;9.30;78.66
66019;HTU21D;52787;51.084;5.816;2023-12-20T10:56:23;9.34;78.64
66019;HTU21D;52787;51.084;5.816;2023-12-20T10:58:50;9.31;78.88
66019;HTU21D;52787;51.084;5.816;2023-12-20T11:01:18;9.29;78.88
66019;HTU21D;52787;51.084;5.816;2023-12-20T11:03:52;9.29;78.99
66019;HTU21D;52787;51.084;5.816;2023-12-20T11:06:36;9.29;79.29
66019;HTU21D;52787;51.084;5.816;2023-12-20T11:09:25;9.38;79.51
66019;HTU21D;52787;51.084;5.816;2023-12-20T11:14:38;9.44;78.62
66019;HTU21D;52787;51.084;5.816;2023-12-20T11:17:11;9.44;78.56
66019;HTU21D;52787;51.084;5.816;2023-12-20T11:22:30;9.22;78.95
66019;HTU21D;52787;51.084;5.816;2023-12-20T11:25:10;9.09;79.33
66019;HTU21D;52787;51.084;5.816;2023-12-20T11:27:41;9.02;79.76
66019;HTU21D;52787;51.084;5.816;2023-12-20T11:30:08;8.97;80.17
66019;HTU21D;52787;51.084;5.816;2023-12-20T11:32:36;8.92;80.34
66019;HTU21D;52787;51.084;5.816;2023-12-20T11:37:38;8.82;81.15
66019;HTU21D;52787;51.084;5.816;2023-12-20T11:40:16;8.79;81.20
66019;HTU21D;52787;51.084;5.816;2023-12-20T11:42:49;8.79;81.14
66019;HTU21D;52787;51.084;5.816;2023-12-20T11:45:24;8.77;81.43
66019;HTU21D;52787;51.084;5.816;2023-12-20T11:47:51;8.78;81.35
66019;HTU21D;52787;51.084;5.816;2023-12-20T11:50:21;8.72;81.44
66019;HTU21D;52787;51.084;5.816;2023-12-20T11:52:48;8.71;81.65
66019;HTU21D;52787;51.084;5.816;2023-12-20T11:55:15;8.74;81.97
66019;HTU21D;52787;51.084;5.816;2023-12-20T11:57:42;8.70;82.18
66019;HTU21D;52787;51.084;5.816;2023-12-20T12:00:09;8.70;82.47
66019;HTU21D;52787;51.084;5.816;2023-12-20T12:02:35;8.71;82.60
66019;HTU21D;52787;51.084;5.816;2023-12-20T12:05:01;8.72;82.87
66019;HTU21D;52787;51.084;5.816;2023-12-20T12:07:27;8.74;83.04
66019;HTU21D;52787;51.084;5.816;2023-12-20T12:09:53;8.76;83.17
66019;HTU21D;52787;51.084;5.816;2023-12-20T12:12:19;8.73;83.23
66019;HTU21D;52787;51.084;5.816;2023-12-20T12:14:45;8.72;83.39
66019;HTU21D;52787;51.084;5.816;2023-12-20T12:17:12;8.72;83.65
66019;HTU21D;52787;51.084;5.816;2023-12-20T12:19:43;8.71;83.90
66019;HTU21D;52787;51.084;5.816;2023-12-20T12:22:14;8.72;83.96
66019;HTU21D;52787;51.084;5.816;2023-12-20T12:24:46;8.71;84.17
66019;HTU21D;52787;51.084;5.816;2023-12-20T12:27:13;8.71;84.64
66019;HTU21D;52787;51.084;5.816;2023-12-20T12:29:40;8.75;84.78
66019;HTU21D;52787;51.084;5.816;2023-12-20T12:32:07;8.73;84.99
66019;HTU21D;52787;51.084;5.816;2023-12-20T12:34:36;8.73;84.90
66019;HTU21D;52787;51.084;5.816;2023-12-20T12:37:04;8.73;85.42
66019;HTU21D;52787;51.084;5.816;2023-12-20T12:39:30;8.70;85.38
66019;HTU21D;52787;51.084;5.816;2023-12-20T12:41:56;8.73;85.71
66019;HTU21D;52787;51.084;5.816;2023-12-20T12:44:23;8.81;85.75
66019;HTU21D;52787;51.084;5.816;2023-12-20T12:46:52;8.94;85.48
66019;HTU21D;52787;51.084;5.816;2023-12-20T12:49:22;9.02;85.00
66019;HTU21D;52787;51.084;5.816;2023-12-20T12:51:47;9.04;85.14
66019;HTU21D;52787;51.084;5.816;2023-12-20T12:54:13;9.09;85.05
66019;HTU21D;52787;51.084;5.816;2023-12-20T12:56:42;9.09;84.94
66019;HTU21D;52787;51.084;5.816;2023-12-20T12:59:08;9.07;85.00
66019;HTU21D;52787;51.084;5.816;2023-12-20T13:01:34;8.98;85.06
66019;HTU21D;52787;51.084;5.816;2023-12-20T13:04:00;8.97;85.42
66019;HTU21D;52787;51.084;5.816;2023-12-20T13:06:28;8.98;85.55
66019;HTU21D;52787;51.084;5.816;2023-12-20T13:08:54;8.98;85.54
66019;HTU21D;52787;51.084;5.816;2023-12-20T13:11:20;8.95;85.80
66019;HTU21D;52787;51.084;5.816;2023-12-20T13:13:46;8.93;86.06
66019;HTU21D;52787;51.084;5.816;2023-12-20T13:16:12;8.88;86.72
66019;HTU21D;52787;51.084;5.816;2023-12-20T13:18:38;8.86;86.71
66019;HTU21D;52787;51.084;5.816;2023-12-20T13:21:08;8.88;86.93
66019;HTU21D;52787;51.084;5.816;2023-12-20T13:23:34;8.90;87.03
66019;HTU21D;52787;51.084;5.816;2023-12-20T13:26:01;8.90;87.03
66019;HTU21D;52787;51.084;5.816;2023-12-20T13:28:28;8.88;87.20
66019;HTU21D;52787;51.084;5.816;2023-12-20T13:30:54;8.91;87.45
66019;HTU21D;52787;51.084;5.816;2023-12-20T13:33:20;8.93;87.47
66019;HTU21D;52787;51.084;5.816;2023-12-20T13:35:46;9.03;87.53
66019;HTU21D;52787;51.084;5.816;2023-12-20T13:38:12;9.09;87.03
66019;HTU21D;52787;51.084;5.816;2023-12-20T13:40:39;9.18;86.74
66019;HTU21D;52787;51.084;5.816;2023-12-20T13:43:04;9.17;86.58
66019;HTU21D;52787;51.084;5.816;2023-12-20T13:45:31;9.16;86.48
66019;HTU21D;52787;51.084;5.816;2023-12-20T13:47:58;9.10;86.67
66019;HTU21D;52787;51.084;5.816;2023-12-20T13:50:24;9.09;86.77
66019;HTU21D;52787;51.084;5.816;2023-12-20T13:52:51;9.07;86.79
66019;HTU21D;52787;51.084;5.816;2023-12-20T13:55:17;9.07;86.83
66019;HTU21D;52787;51.084;5.816;2023-12-20T13:57:43;9.11;86.75
66019;HTU21D;52787;51.084;5.816;2023-12-20T14:00:09;9.09;86.44
66019;HTU21D;52787;51.084;5.816;2023-12-20T14:02:41;9.10;86.72
66019;HTU21D;52787;51.084;5.816;2023-12-20T14:05:08;9.10;86.87
66019;HTU21D;52787;51.084;5.816;2023-12-20T14:07:35;9.12;86.73
66019;HTU21D;52787;51.084;5.816;2023-12-20T14:10:02;9.06;86.79
66019;HTU21D;52787;51.084;5.816;2023-12-20T14:12:28;9.04;86.91
66019;HTU21D;52787;51.084;5.816;2023-12-20T14:14:54;9.05;86.86
66019;HTU21D;52787;51.084;5.816;2023-12-20T14:17:21;9.09;86.78
66019;HTU21D;52787;51.084;5.816;2023-12-20T14:19:47;9.05;86.80
66019;HTU21D;52787;51.084;5.816;2023-12-20T14:22:13;9.05;87.06
66019;HTU21D;52787;51.084;5.816;2023-12-20T14:24:42;9.00;86.99
66019;HTU21D;52787;51.084;5.816;2023-12-20T14:27:09;9.04;86.87
66019;HTU21D;52787;51.084;5.816;2023-12-20T14:29:35;9.07;86.63
66019;HTU21D;52787;51.084;5.816;2023-12-20T14:32:01;9.03;86.67
66019;HTU21D;52787;51.084;5.816;2023-12-20T14:34:29;9.04;86.45
66019;HTU21D;52787;51.084;5.816;2023-12-20T14:36:55;9.04;86.45
66019;HTU21D;52787;51.084;5.816;2023-12-20T14:39:21;9.06;86.06
66019;HTU21D;52787;51.084;5.816;2023-12-20T14:41:46;9.10;85.99
66019;HTU21D;52787;51.084;5.816;2023-12-20T14:44:12;9.09;86.12
66019;HTU21D;52787;51.084;5.816;2023-12-20T14:46:38;9.15;85.85
66019;HTU21D;52787;51.084;5.816;2023-12-20T14:49:07;9.12;85.69
66019;HTU21D;52787;51.084;5.816;2023-12-20T14:51:33;9.14;85.74
66019;HTU21D;52787;51.084;5.816;2023-12-20T14:53:59;9.12;85.79
66019;HTU21D;52787;51.084;5.816;2023-12-20T14:56:25;9.09;85.90
66019;HTU21D;52787;51.084;5.816;2023-12-20T14:58:51;9.02;86.21
66019;HTU21D;52787;51.084;5.816;2023-12-20T15:01:18;8.98;86.29
66019;HTU21D;52787;51.084;5.816;2023-12-20T15:03:47;8.92;86.42
66019;HTU21D;52787;51.084;5.816;2023-12-20T15:06:13;8.94;86.54
66019;HTU21D;52787;51.084;5.816;2023-12-20T15:08:39;8.95;86.51
66019;HTU21D;52787;51.084;5.816;2023-12-20T15:11:04;8.97;86.55
66019;HTU21D;52787;51.084;5.816;2023-12-20T15:13:30;9.00;86.49
66019;HTU21D;52787;51.084;5.816;2023-12-20T15:15:57;9.04;86.51
66019;HTU21D;52787;51.084;5.816;2023-12-20T15:18:22;9.05;86.38
66019;HTU21D;52787;51.084;5.816;2023-12-20T15:20:48;9.02;86.40
66019;HTU21D;52787;51.084;5.816;2023-12-20T15:23:17;9.01;86.35
66019;HTU21D;52787;51.084;5.816;2023-12-20T15:25:44;9.03;86.32
66019;HTU21D;52787;51.084;5.816;2023-12-20T15:28:10;9.05;86.19
66019;HTU21D;52787;51.084;5.816;2023-12-20T15:30:36;9.05;86.16
66019;HTU21D;52787;51.084;5.816;2023-12-20T15:33:02;9.04;86.16
66019;HTU21D;52787;51.084;5.816;2023-12-20T15:35:28;9.07;86.00